createdAt,value
2018-12-31T00:00:24.193Z,4.60
2018-12-31T00:02:51.770Z,4.60
2018-12-31T00:05:19.321Z,4.60
2018-12-31T00:07:47.656Z,4.60
2018-12-31T00:10:15.195Z,4.60
2018-12-31T00:12:42.774Z,4.60
2018-12-31T00:15:10.407Z,4.60
2018-12-31T00:17:37.999Z,4.70
2018-12-31T00:20:07.318Z,4.60
2018-12-31T00:22:34.861Z,4.60
2018-12-31T00:25:02.434Z,4.60
2018-12-31T00:27:30.009Z,4.50
2018-12-31T00:29:57.548Z,4.60
2018-12-31T00:32:25.872Z,4.50
2018-12-31T00:34:53.762Z,4.50
2018-12-31T00:37:21.309Z,4.50
2018-12-31T00:39:48.878Z,4.50
2018-12-31T00:42:16.421Z,4.40
2018-12-31T00:44:44.981Z,4.20
2018-12-31T00:47:12.529Z,4.10
2018-12-31T00:49:40.104Z,4.20
2018-12-31T00:52:07.678Z,4.30
2018-12-31T00:54:35.252Z,4.50
2018-12-31T00:57:02.797Z,4.50
2018-12-31T00:59:30.367Z,4.60
2018-12-31T01:01:57.942Z,4.60
2018-12-31T01:04:25.581Z,4.60
2018-12-31T01:06:53.121Z,4.60
2018-12-31T01:09:20.696Z,4.50
2018-12-31T01:11:48.252Z,4.30
2018-12-31T01:14:15.824Z,4.40
2018-12-31T01:16:43.378Z,4.40
2018-12-31T01:19:10.959Z,4.50
2018-12-31T01:21:38.525Z,4.50
2018-12-31T01:24:06.108Z,4.50
2018-12-31T01:26:33.665Z,4.60
2018-12-31T01:29:01.241Z,4.60
2018-12-31T01:31:28.784Z,4.80
2018-12-31T01:33:56.333Z,4.80
2018-12-31T01:36:24.861Z,4.70
2018-12-31T01:38:52.412Z,4.70
2018-12-31T01:41:19.960Z,4.70
2018-12-31T01:43:47.540Z,4.70
2018-12-31T01:46:15.153Z,4.70
2018-12-31T01:48:42.724Z,4.70
2018-12-31T01:51:11.432Z,4.70
2018-12-31T01:53:38.666Z,4.60
2018-12-31T01:56:06.249Z,4.60
2018-12-31T01:58:33.855Z,4.60
2018-12-31T02:01:01.408Z,4.60
2018-12-31T02:03:29.965Z,4.60
2018-12-31T02:05:58.536Z,4.60
2018-12-31T02:08:27.100Z,4.50
2018-12-31T02:10:54.648Z,4.60
2018-12-31T02:13:22.188Z,4.60
2018-12-31T02:15:50.738Z,4.60
2018-12-31T02:18:18.304Z,4.60
2018-12-31T02:20:45.882Z,4.70
2018-12-31T02:23:13.434Z,4.70
2018-12-31T02:25:41.091Z,4.70
2018-12-31T02:28:08.644Z,4.60
2018-12-31T02:30:36.219Z,4.60
2018-12-31T02:33:03.769Z,4.50
2018-12-31T02:35:31.343Z,4.50
2018-12-31T02:37:58.912Z,4.50
2018-12-31T02:40:26.466Z,4.50
2018-12-31T02:42:54.049Z,4.50
2018-12-31T02:45:21.605Z,4.50
2018-12-31T02:47:49.181Z,4.50
2018-12-31T02:50:16.762Z,4.50
2018-12-31T02:52:44.305Z,4.40
2018-12-31T02:55:12.807Z,4.40
2018-12-31T02:57:40.384Z,4.50
2018-12-31T03:00:08.718Z,4.50
2018-12-31T03:02:36.265Z,4.50
2018-12-31T03:05:03.841Z,4.50
2018-12-31T03:07:31.454Z,4.50
2018-12-31T03:09:58.994Z,4.50
2018-12-31T03:12:26.566Z,4.50
2018-12-31T03:14:54.117Z,4.60
2018-12-31T03:17:21.703Z,4.60
2018-12-31T03:19:49.246Z,4.60
2018-12-31T03:22:17.805Z,4.60
2018-12-31T03:24:45.362Z,4.60
2018-12-31T03:27:12.908Z,4.60
2018-12-31T03:29:41.456Z,4.60
2018-12-31T03:32:09.030Z,4.60
2018-12-31T03:34:37.572Z,4.60
2018-12-31T03:37:05.125Z,4.50
2018-12-31T03:39:32.716Z,4.60
2018-12-31T03:42:01.101Z,4.60
2018-12-31T03:44:28.651Z,4.60
2018-12-31T03:46:56.228Z,4.60
2018-12-31T03:49:23.773Z,4.60
2018-12-31T03:51:51.313Z,4.60
2018-12-31T03:54:18.988Z,4.70
2018-12-31T03:56:46.556Z,4.70
2018-12-31T03:59:14.123Z,4.70
2018-12-31T04:01:41.674Z,4.70
2018-12-31T04:04:10.249Z,4.70
2018-12-31T04:06:37.797Z,4.70
2018-12-31T04:09:05.366Z,4.70
2018-12-31T04:11:32.905Z,4.70
2018-12-31T04:14:00.472Z,4.70
2018-12-31T04:16:28.020Z,4.70
2018-12-31T04:18:55.686Z,4.70
2018-12-31T04:21:23.243Z,4.70
2018-12-31T04:23:50.812Z,4.70
2018-12-31T04:26:18.381Z,4.80
2018-12-31T04:28:45.957Z,4.80
2018-12-31T04:31:14.547Z,4.70
2018-12-31T04:33:42.882Z,4.70
2018-12-31T04:36:10.431Z,4.60
2018-12-31T04:38:38.005Z,4.70
2018-12-31T04:41:05.575Z,4.80
2018-12-31T04:43:33.155Z,4.80
2018-12-31T04:46:00.703Z,4.80
2018-12-31T04:48:28.241Z,4.80
2018-12-31T04:50:55.818Z,4.80
2018-12-31T04:53:23.365Z,4.80
2018-12-31T04:55:50.937Z,4.80
2018-12-31T04:58:23.271Z,4.80
2018-12-31T05:00:47.635Z,4.80
2018-12-31T05:03:15.173Z,4.80
2018-12-31T05:05:42.748Z,4.80
2018-12-31T05:08:10.293Z,4.80
2018-12-31T05:10:37.859Z,4.80
2018-12-31T05:13:05.396Z,4.70
2018-12-31T05:15:32.970Z,4.80
2018-12-31T05:18:00.509Z,4.70
2018-12-31T05:20:28.081Z,4.70
2018-12-31T05:22:55.623Z,4.70
2018-12-31T05:25:24.179Z,4.70
2018-12-31T05:27:51.745Z,4.70
2018-12-31T05:30:19.293Z,4.80
2018-12-31T05:32:46.860Z,4.90
2018-12-31T05:35:14.431Z,4.90
2018-12-31T05:37:41.973Z,4.90
2018-12-31T05:40:10.313Z,4.90
2018-12-31T05:42:37.881Z,4.90
2018-12-31T05:45:06.230Z,4.90
2018-12-31T05:47:33.783Z,4.90
2018-12-31T05:50:01.360Z,5.00
2018-12-31T05:52:28.918Z,5.00
2018-12-31T05:54:56.492Z,5.00
2018-12-31T05:57:24.037Z,4.90
2018-12-31T05:59:51.605Z,4.90
2018-12-31T06:02:19.151Z,4.90
2018-12-31T06:04:46.724Z,5.00
2018-12-31T06:07:14.272Z,5.00
2018-12-31T06:09:41.846Z,4.90
2018-12-31T06:12:09.427Z,4.90
2018-12-31T06:14:36.974Z,4.90
2018-12-31T06:17:05.265Z,5.00
2018-12-31T06:19:32.150Z,5.00
2018-12-31T06:22:00.752Z,4.90
2018-12-31T06:24:28.293Z,5.00
2018-12-31T06:26:55.855Z,4.90
2018-12-31T06:29:24.389Z,5.00
2018-12-31T06:31:51.937Z,5.00
2018-12-31T06:34:19.509Z,5.10
2018-12-31T06:36:47.089Z,5.00
2018-12-31T06:39:14.657Z,5.00
2018-12-31T06:41:42.196Z,5.00
2018-12-31T06:44:09.774Z,5.10
2018-12-31T06:46:37.308Z,5.00
2018-12-31T06:49:04.873Z,5.00
2018-12-31T06:51:32.448Z,5.00
2018-12-31T06:54:00.030Z,5.00
2018-12-31T06:56:27.569Z,5.00
2018-12-31T06:58:56.137Z,5.00
2018-12-31T07:01:25.448Z,4.90
2018-12-31T07:03:53.099Z,4.90
2018-12-31T07:06:20.637Z,4.90
2018-12-31T07:08:48.209Z,5.00
2018-12-31T07:11:15.771Z,4.90
2018-12-31T07:13:43.345Z,5.00
2018-12-31T07:16:10.900Z,5.00
2018-12-31T07:18:38.480Z,5.00
2018-12-31T07:21:06.061Z,5.00
2018-12-31T07:23:33.637Z,5.10
2018-12-31T07:26:01.220Z,5.10
2018-12-31T07:28:28.760Z,5.10
2018-12-31T07:30:56.335Z,5.10
2018-12-31T07:33:23.905Z,5.00
2018-12-31T07:35:51.449Z,5.10
2018-12-31T07:38:19.032Z,5.10
2018-12-31T07:40:46.585Z,5.10
2018-12-31T07:43:14.153Z,5.10
2018-12-31T07:45:42.465Z,5.10
2018-12-31T07:48:10.012Z,5.10
2018-12-31T07:50:37.581Z,5.10
2018-12-31T07:53:05.122Z,5.10
2018-12-31T07:55:33.676Z,5.20
2018-12-31T07:58:01.223Z,5.00
2018-12-31T08:00:28.770Z,5.00
2018-12-31T08:02:57.342Z,5.10
2018-12-31T08:05:24.917Z,5.00
2018-12-31T08:07:52.492Z,5.10
2018-12-31T08:10:20.035Z,4.90
2018-12-31T08:12:47.612Z,5.00
2018-12-31T08:15:15.977Z,5.10
2018-12-31T08:17:44.289Z,5.20
2018-12-31T08:20:12.397Z,5.20
2018-12-31T08:22:39.943Z,5.20
2018-12-31T08:25:07.508Z,5.20
2018-12-31T08:27:35.056Z,5.20
2018-12-31T08:30:02.622Z,5.30
2018-12-31T08:32:30.168Z,5.30
2018-12-31T08:34:57.710Z,5.30
2018-12-31T08:37:25.281Z,5.40
2018-12-31T08:39:52.822Z,5.40
2018-12-31T08:42:20.400Z,5.40
2018-12-31T08:44:47.945Z,5.40
2018-12-31T08:47:15.512Z,5.50
2018-12-31T08:49:43.083Z,5.50
2018-12-31T08:52:10.628Z,5.50
2018-12-31T08:54:38.193Z,5.60
2018-12-31T08:57:05.765Z,5.60
2018-12-31T08:59:33.332Z,5.70
2018-12-31T09:02:01.659Z,5.70
2018-12-31T09:04:28.499Z,5.70
2018-12-31T09:06:56.079Z,5.80
2018-12-31T09:09:23.621Z,5.80
2018-12-31T09:11:51.185Z,5.80
2018-12-31T09:14:18.726Z,5.80
2018-12-31T09:16:46.270Z,5.90
2018-12-31T09:19:13.836Z,5.80
2018-12-31T09:21:41.406Z,5.90
2018-12-31T09:24:09.001Z,5.90
2018-12-31T09:26:36.553Z,6.00
2018-12-31T09:29:04.132Z,5.90
2018-12-31T09:31:31.691Z,6.00
2018-12-31T09:34:00.032Z,6.20
2018-12-31T09:36:27.581Z,6.20
2018-12-31T09:38:55.149Z,6.00
2018-12-31T09:41:22.688Z,6.00
2018-12-31T09:43:50.230Z,6.00
2018-12-31T09:46:17.805Z,6.10
2018-12-31T09:48:45.349Z,6.00
2018-12-31T09:51:12.932Z,6.10
2018-12-31T09:53:40.500Z,6.00
2018-12-31T09:56:08.041Z,6.10
2018-12-31T09:58:36.467Z,6.20
2018-12-31T10:01:03.237Z,6.30
2018-12-31T10:03:30.808Z,6.30
2018-12-31T10:05:58.353Z,6.40
2018-12-31T10:08:25.922Z,6.10
2018-12-31T10:10:53.470Z,6.20
2018-12-31T10:13:21.058Z,6.30
2018-12-31T10:15:48.596Z,6.40
2018-12-31T10:18:16.160Z,6.50
2018-12-31T10:20:43.707Z,6.60
2018-12-31T10:23:11.274Z,6.50
2018-12-31T10:25:38.821Z,6.60
2018-12-31T10:28:06.397Z,6.80
2018-12-31T10:30:33.967Z,6.80
2018-12-31T10:33:01.549Z,6.80
2018-12-31T10:35:30.100Z,6.90
2018-12-31T10:37:57.673Z,7.00
2018-12-31T10:40:25.989Z,6.60
2018-12-31T10:42:53.537Z,6.60
2018-12-31T10:45:21.115Z,6.80
2018-12-31T10:47:48.665Z,6.80
2018-12-31T10:50:16.237Z,6.80
2018-12-31T10:52:43.810Z,6.70
2018-12-31T10:55:11.378Z,6.80
2018-12-31T10:57:38.945Z,6.90
2018-12-31T11:00:06.523Z,6.90
2018-12-31T11:02:34.839Z,6.90
2018-12-31T11:05:02.409Z,6.90
2018-12-31T11:07:30.043Z,7.10
2018-12-31T11:09:57.615Z,7.20
2018-12-31T11:12:25.167Z,7.20
2018-12-31T11:14:52.738Z,7.00
2018-12-31T11:17:20.289Z,7.20
2018-12-31T11:19:47.860Z,7.00
2018-12-31T11:22:15.410Z,7.10
2018-12-31T11:24:42.985Z,7.40
2018-12-31T11:27:10.524Z,7.40
2018-12-31T11:29:38.097Z,7.50
2018-12-31T11:32:05.676Z,7.40
2018-12-31T11:34:33.220Z,7.40
2018-12-31T11:37:00.792Z,7.40
2018-12-31T11:39:28.334Z,7.50
2018-12-31T11:41:55.904Z,7.50
2018-12-31T11:44:23.440Z,7.50
2018-12-31T11:46:51.020Z,7.50
2018-12-31T11:49:18.561Z,7.50
2018-12-31T11:51:46.138Z,7.50
2018-12-31T11:54:13.709Z,7.50
2018-12-31T11:56:41.253Z,7.50
2018-12-31T11:59:08.824Z,7.70
2018-12-31T12:01:37.173Z,7.80
2018-12-31T12:04:04.741Z,7.80
2018-12-31T12:06:32.284Z,7.80
2018-12-31T12:08:59.853Z,8.00
2018-12-31T12:11:27.437Z,8.00
2018-12-31T12:13:54.979Z,8.00
2018-12-31T12:16:22.558Z,8.00
2018-12-31T12:18:50.108Z,8.10
2018-12-31T12:21:17.684Z,8.10
2018-12-31T12:23:45.228Z,8.00
2018-12-31T12:26:12.810Z,8.10
2018-12-31T12:28:40.372Z,8.20
2018-12-31T12:31:07.931Z,8.10
2018-12-31T12:33:35.506Z,8.10
2018-12-31T12:36:03.129Z,8.20
2018-12-31T12:38:30.812Z,8.10
2018-12-31T12:40:58.361Z,8.10
2018-12-31T12:43:25.941Z,8.20
2018-12-31T12:45:53.500Z,8.10
2018-12-31T12:48:21.074Z,8.10
2018-12-31T12:50:48.625Z,8.20
2018-12-31T12:53:16.197Z,8.20
2018-12-31T12:55:43.775Z,8.10
2018-12-31T12:58:11.348Z,8.10
2018-12-31T13:00:38.897Z,8.10
2018-12-31T13:03:06.513Z,8.20
2018-12-31T13:05:34.829Z,8.00
2018-12-31T13:08:02.404Z,8.00
2018-12-31T13:10:29.942Z,8.10
2018-12-31T13:12:57.517Z,8.10
2018-12-31T13:15:25.066Z,8.10
2018-12-31T13:17:52.619Z,8.00
2018-12-31T13:20:20.210Z,7.90
2018-12-31T13:22:47.754Z,7.90
2018-12-31T13:25:15.337Z,7.90
2018-12-31T13:27:42.896Z,8.10
2018-12-31T13:30:10.618Z,8.40
2018-12-31T13:32:38.105Z,8.30
2018-12-31T13:35:05.688Z,8.40
2018-12-31T13:37:33.240Z,8.20
2018-12-31T13:40:00.816Z,8.00
2018-12-31T13:42:28.373Z,8.10
2018-12-31T13:44:56.716Z,8.10
2018-12-31T13:47:24.269Z,8.10
2018-12-31T13:49:51.817Z,8.00
2018-12-31T13:52:19.398Z,8.10
2018-12-31T13:54:46.949Z,8.10
2018-12-31T13:57:14.572Z,8.10
2018-12-31T13:59:42.149Z,8.10
2018-12-31T14:02:09.704Z,8.00
2018-12-31T14:04:37.276Z,7.90
2018-12-31T14:07:04.853Z,7.90
2018-12-31T14:09:32.411Z,7.90
2018-12-31T14:11:59.994Z,7.80
2018-12-31T14:14:28.313Z,7.70
2018-12-31T14:16:55.857Z,7.70
2018-12-31T14:19:23.436Z,7.70
2018-12-31T14:21:51.022Z,7.80
2018-12-31T14:24:18.652Z,7.80
2018-12-31T14:26:46.214Z,7.90
2018-12-31T14:29:14.792Z,7.80
2018-12-31T14:31:42.375Z,7.60
2018-12-31T14:34:09.956Z,7.80
2018-12-31T14:36:37.509Z,7.80
2018-12-31T14:39:05.085Z,7.70
2018-12-31T14:41:32.654Z,7.50
2018-12-31T14:44:00.233Z,7.60
2018-12-31T14:46:27.788Z,7.80
2018-12-31T14:48:55.448Z,7.90
2018-12-31T14:51:23.832Z,7.90
2018-12-31T14:53:51.378Z,7.90
2018-12-31T14:56:18.952Z,7.90
2018-12-31T14:58:46.509Z,8.00
2018-12-31T15:01:15.113Z,8.00
2018-12-31T15:03:42.677Z,7.80
2018-12-31T15:06:10.261Z,8.00
2018-12-31T15:08:37.814Z,8.00
2018-12-31T15:11:05.394Z,7.90
2018-12-31T15:13:32.945Z,7.80
2018-12-31T15:16:00.496Z,7.60
2018-12-31T15:18:28.129Z,7.70
2018-12-31T15:20:55.709Z,7.60
2018-12-31T15:23:23.311Z,7.60
2018-12-31T15:25:50.880Z,7.60
2018-12-31T15:28:18.462Z,7.60
2018-12-31T15:30:46.780Z,7.50
2018-12-31T15:33:14.380Z,7.50
2018-12-31T15:35:41.945Z,7.30
2018-12-31T15:38:10.521Z,7.20
2018-12-31T15:40:38.073Z,7.10
2018-12-31T15:43:05.652Z,6.90
2018-12-31T15:45:33.341Z,7.00
2018-12-31T15:48:00.890Z,7.10
2018-12-31T15:50:28.454Z,7.30
2018-12-31T15:52:56.039Z,7.20
2018-12-31T15:55:23.625Z,7.10
2018-12-31T15:57:51.205Z,7.10
2018-12-31T16:00:18.801Z,7.00
2018-12-31T16:02:46.456Z,7.00
2018-12-31T16:05:14.017Z,6.90
2018-12-31T16:07:45.757Z,6.90
2018-12-31T16:10:09.188Z,6.90
2018-12-31T16:12:37.547Z,7.10
2018-12-31T16:15:05.119Z,7.10
2018-12-31T16:17:32.711Z,7.20
2018-12-31T16:20:00.301Z,7.20
2018-12-31T16:22:27.856Z,7.10
2018-12-31T16:24:55.400Z,6.90
2018-12-31T16:27:23.033Z,7.00
2018-12-31T16:29:50.597Z,7.00
2018-12-31T16:32:18.181Z,7.00
2018-12-31T16:34:45.729Z,6.90
2018-12-31T16:37:13.314Z,6.90
2018-12-31T16:39:40.935Z,7.00
2018-12-31T16:42:08.531Z,7.10
2018-12-31T16:44:37.379Z,7.10
2018-12-31T16:47:03.747Z,7.10
2018-12-31T16:49:31.325Z,7.00
2018-12-31T16:52:02.892Z,6.90
2018-12-31T16:54:26.493Z,7.00
2018-12-31T16:56:54.057Z,7.10
2018-12-31T16:59:21.647Z,7.10
2018-12-31T17:01:49.213Z,6.90
2018-12-31T17:04:16.800Z,7.00
2018-12-31T17:06:44.360Z,7.10
2018-12-31T17:09:11.985Z,7.10
2018-12-31T17:11:39.549Z,7.00
2018-12-31T17:14:07.898Z,6.90
2018-12-31T17:16:35.460Z,6.90
2018-12-31T17:19:03.048Z,6.90
2018-12-31T17:21:30.604Z,6.80
2018-12-31T17:23:58.224Z,6.90
2018-12-31T17:26:25.787Z,6.90
2018-12-31T17:28:53.377Z,6.80
2018-12-31T17:31:20.941Z,6.80
2018-12-31T17:33:48.531Z,6.90
2018-12-31T17:36:16.133Z,6.90
2018-12-31T17:38:43.712Z,6.70
2018-12-31T17:41:12.050Z,6.70
2018-12-31T17:43:40.540Z,6.70
2018-12-31T17:46:08.116Z,6.70
2018-12-31T17:48:35.663Z,6.80
2018-12-31T17:51:03.288Z,6.80
2018-12-31T17:53:30.852Z,6.90
2018-12-31T17:55:58.441Z,6.90
2018-12-31T17:58:25.984Z,6.90
2018-12-31T18:00:53.568Z,7.00
2018-12-31T18:03:21.882Z,6.90
2018-12-31T18:05:49.502Z,6.90
2018-12-31T18:08:17.089Z,7.00
2018-12-31T18:10:44.677Z,7.00
2018-12-31T18:13:13.304Z,7.00
2018-12-31T18:15:40.703Z,7.00
2018-12-31T18:18:08.277Z,7.00
2018-12-31T18:20:35.853Z,7.10
2018-12-31T18:23:03.428Z,7.20
2018-12-31T18:25:31.749Z,7.20
2018-12-31T18:27:59.315Z,7.20
2018-12-31T18:30:26.893Z,7.10
2018-12-31T18:32:54.486Z,7.20
2018-12-31T18:35:22.828Z,7.10
2018-12-31T18:37:50.392Z,7.10
2018-12-31T18:40:17.994Z,7.10
2018-12-31T18:42:45.549Z,7.00
2018-12-31T18:45:13.135Z,7.00
2018-12-31T18:47:40.685Z,6.90
2018-12-31T18:50:08.257Z,6.80
2018-12-31T18:52:35.832Z,6.70
2018-12-31T18:55:03.444Z,6.70
2018-12-31T18:57:30.998Z,6.80
2018-12-31T18:59:58.581Z,6.80
2018-12-31T19:02:26.157Z,6.80
2018-12-31T19:04:53.704Z,6.80
2018-12-31T19:07:21.305Z,6.90
2018-12-31T19:09:49.632Z,6.80
2018-12-31T19:12:17.214Z,6.80
2018-12-31T19:14:44.805Z,6.80
2018-12-31T19:17:12.430Z,6.80
2018-12-31T19:19:39.981Z,6.80
2018-12-31T19:22:07.578Z,6.80
2018-12-31T19:24:35.892Z,6.80
2018-12-31T19:27:03.474Z,6.70
2018-12-31T19:29:31.069Z,6.90
2018-12-31T19:31:58.652Z,6.90
2018-12-31T19:34:26.209Z,6.80
2018-12-31T19:36:53.757Z,6.80
2018-12-31T19:39:22.368Z,6.70
2018-12-31T19:41:49.925Z,6.70
2018-12-31T19:44:18.515Z,6.60
2018-12-31T19:46:46.064Z,6.50
2018-12-31T19:49:13.642Z,6.40
2018-12-31T19:51:41.192Z,6.40
2018-12-31T19:54:08.766Z,6.40
2018-12-31T19:56:36.320Z,6.50
2018-12-31T19:59:03.901Z,6.50
2018-12-31T20:01:31.461Z,6.50
2018-12-31T20:03:59.050Z,6.50
2018-12-31T20:06:26.605Z,6.60
2018-12-31T20:08:54.174Z,6.50
2018-12-31T20:11:21.803Z,6.50
2018-12-31T20:13:49.365Z,6.60
2018-12-31T20:16:16.936Z,6.60
2018-12-31T20:18:44.611Z,6.60
2018-12-31T20:21:12.166Z,6.60
2018-12-31T20:23:39.744Z,6.60
2018-12-31T20:26:08.137Z,6.50
2018-12-31T20:28:35.721Z,6.50
2018-12-31T20:31:03.284Z,6.40
2018-12-31T20:33:30.874Z,6.60
2018-12-31T20:35:58.536Z,6.60
2018-12-31T20:38:26.086Z,6.70
2018-12-31T20:40:53.697Z,6.60
2018-12-31T20:43:21.248Z,6.40
2018-12-31T20:45:48.847Z,6.40
2018-12-31T20:48:16.401Z,6.20
2018-12-31T20:50:44.018Z,6.20
2018-12-31T20:53:11.604Z,6.20
2018-12-31T20:55:39.164Z,6.20
2018-12-31T20:58:06.745Z,6.20
2018-12-31T21:00:34.326Z,6.20
2018-12-31T21:03:01.910Z,6.20
2018-12-31T21:05:30.225Z,6.30
2018-12-31T21:07:58.792Z,6.30
2018-12-31T21:10:26.419Z,6.40
2018-12-31T21:12:54.750Z,6.50
2018-12-31T21:15:22.337Z,6.40
2018-12-31T21:20:44.701Z,6.50
2018-12-31T21:23:12.257Z,6.50
2018-12-31T21:25:39.840Z,6.50
2018-12-31T21:28:07.401Z,6.50
2018-12-31T21:30:35.762Z,6.50
2018-12-31T21:33:03.316Z,6.40
2018-12-31T21:35:30.907Z,6.40
2018-12-31T21:37:58.460Z,6.40
2018-12-31T21:40:26.087Z,6.40
2018-12-31T21:42:53.637Z,6.40
2018-12-31T21:45:21.212Z,6.40
2018-12-31T21:47:48.771Z,6.40
2018-12-31T21:50:16.357Z,6.30
2018-12-31T21:52:44.086Z,6.30
2018-12-31T21:55:13.360Z,6.30
2018-12-31T21:57:41.922Z,6.30
2018-12-31T22:00:09.516Z,6.40
2018-12-31T22:02:37.115Z,6.40
2018-12-31T22:05:04.694Z,6.50
2018-12-31T22:07:32.284Z,6.50
2018-12-31T22:09:59.872Z,6.50
2018-12-31T22:12:27.432Z,6.30
2018-12-31T22:14:55.782Z,6.20
2018-12-31T22:17:23.410Z,6.20
2018-12-31T22:19:50.968Z,6.30
2018-12-31T22:22:18.557Z,6.30
2018-12-31T22:24:46.146Z,6.30
2018-12-31T22:27:13.901Z,6.30
2018-12-31T22:29:41.494Z,6.30
2018-12-31T22:32:10.395Z,6.30
2018-12-31T22:34:36.929Z,6.40
2018-12-31T22:37:04.510Z,6.40
2018-12-31T22:39:32.114Z,6.50
2018-12-31T22:41:59.693Z,6.40
2018-12-31T22:44:27.272Z,6.30
2018-12-31T22:46:54.857Z,6.30
2018-12-31T22:49:24.210Z,6.30
2018-12-31T22:51:51.770Z,6.20
2018-12-31T22:54:19.319Z,6.10
2018-12-31T22:56:46.903Z,6.00
2018-12-31T22:59:14.500Z,6.20
2018-12-31T23:01:42.094Z,6.30
2018-12-31T23:04:09.791Z,6.30
2018-12-31T23:06:37.370Z,6.50
2018-12-31T23:09:04.959Z,6.50
2018-12-31T23:11:32.549Z,6.50
2018-12-31T23:14:00.877Z,6.50
2018-12-31T23:16:28.486Z,6.50
2018-12-31T23:18:56.069Z,6.50
2018-12-31T23:21:23.633Z,6.40
2018-12-31T23:23:51.247Z,6.40
2018-12-31T23:26:19.622Z,6.40
2018-12-31T23:28:52.518Z,6.40
2018-12-31T23:31:14.837Z,6.30
2018-12-31T23:33:42.426Z,6.40
2018-12-31T23:36:09.990Z,6.30
2018-12-31T23:38:37.589Z,6.30
2018-12-31T23:41:05.195Z,6.20
2018-12-31T23:43:33.795Z,6.20
2018-12-31T23:46:01.399Z,6.20
2018-12-31T23:48:28.995Z,6.20
2018-12-31T23:50:56.596Z,6.20
2018-12-31T23:53:24.189Z,6.20
2018-12-31T23:55:51.775Z,6.20
2018-12-31T23:58:19.362Z,6.20
